Observations for Trim Market St
| Time | AQI | Temp °C | Hum % | Pres Pa | CO μg/m³ | H₂S μg/m³ | NO μg/m³ | NO₂ μg/m³ | O₃ μg/m³ | SO₂ μg/m³ | PM1 μg/m³ | PM2.5 μg/m³ | PM10 μg/m³ |
|---|---|---|---|---|---|---|---|---|---|---|---|---|---|
| Wednesday 15 July 2026 | |||||||||||||
| 09:20 | 1 | 26.9 | 50 | 56,124 | 0 | 0 | 0 | 0 | 3.17 | 0 | 9.98 | 16.3 | 23.12 |
| 09:19 | 1 | 26.9 | 50 | 56,070 | 0 | 0 | 0 | 0 | 1.95 | 0 | 10.69 | 16.82 | 23.12 |
| 09:18 | 1 | 27 | 51 | 56,041 | 0 | 0 | 0 | 0 | 1.4 | 0 | 10.69 | 17.84 | 26.82 |
| 09:17 | 1 | 27.1 | 51 | 56,021 | 0 | 0 | 0 | 0 | 0.37 | 0 | 11.4 | 16.29 | 23.1 |
| 09:16 | 1 | 27.2 | 51 | 56,014 | 0 | 0 | 0 | 0 | 0 | 0 | 10.69 | 14.75 | 20.13 |
| 09:14 | 1 | 27.2 | 51 | 56,066 | 0.05 | 0 | 0 | 0 | 0 | 0 | 11.4 | 16.25 | 23.04 |
| 09:13 | 1 | 27.2 | 52 | 56,150 | 0.17 | 0 | 0 | 0 | 0 | 0 | 11.4 | 15.71 | 22.26 |
| 09:12 | 1 | 27.2 | 52 | 56,262 | 0.43 | 0 | 0 | 0 | 1.05 | 0 | 12.11 | 14.66 | 22.23 |
| 09:08 | 1 | 27 | 53 | 56,571 | 0.24 | 0 | 0 | 0 | 2.74 | 0 | 11.4 | 16.62 | 22.82 |
| 09:07 | 1 | 27 | 53 | 56,727 | 0.26 | 0 | 0 | 1.14 | 0.54 | 0 | 10.69 | 14.55 | 20.61 |
| 09:05 | 1 | 26.8 | 54 | 56,966 | 0.34 | 0 | 0 | 1.12 | 4.69 | 0 | 10.69 | 16.54 | 24.16 |
| 08:57 | 1 | 25.9 | 57 | 57,708 | 0.19 | 0 | 0 | 3.13 | 19.99 | 0 | 12.83 | 15.29 | 23.06 |
| 08:55 | 1 | 25.4 | 57 | 57,697 | 0.14 | 0 | 0 | 4.31 | 14.88 | 0 | 10.69 | 14.25 | 21.59 |
| 08:54 | 1 | 25.3 | 58 | 57,688 | 0.11 | 0 | 0 | 2.3 | 21.34 | 0 | 12.83 | 17.25 | 25.76 |
| 08:53 | 1 | 25.1 | 58 | 57,674 | 0.12 | 0 | 0 | 1.31 | 13.99 | 0 | 11.4 | 15.7 | 24.3 |
| 08:51 | 1 | 24.8 | 59 | 57,636 | 0.11 | 0 | 3.68 | 8.31 | 8.98 | 0 | 12.83 | 17.15 | 25.59 |
| 08:50 | 1 | 24.7 | 59 | 57,611 | 0.08 | 0 | 0 | 2.81 | 21.06 | 0 | 11.4 | 17.13 | 28.31 |
| 08:49 | 1 | 24.6 | 59 | 57,585 | 0.04 | 0 | 0.3 | 3.7 | 16.69 | 0 | 11.4 | 15.6 | 23.42 |
| 08:48 | 1 | 24.4 | 59 | 57,559 | 0 | 0 | 0 | 2.93 | 18.42 | 0 | 11.4 | 16.08 | 22.7 |
| 08:47 | 1 | 24.3 | 60 | 57,528 | 0 | 0 | 1.52 | 9.85 | 19.57 | 0 | 10.69 | 14.07 | 20.62 |